PAUNPANI

Guest
Details From PAUN - Unalakleet
To PANI - Aniak
Flight Number -
Tags Generated
Created
Modified
Stats Distance 142 nm / 263 km
Max Altitude 0 ft / 0 m
Waypoints 2
Social Downloads 1
Likes 0
Share VATSIM

Download

Looking for another format? Having issues loading an existing format? Contact us
Advertisement - Login to hide

Notes

Generated

Route

PAUN PANI

ID Type Via Altitude Latitude Longitude Leg Dist Tot Dist Heading (true) Name
O PAUN APT - 0 ft / 0 m 63.88345˚ -160.79903˚ - 0 nm - -
O PANI APT - 0 ft / 0 m 61.58585˚ -159.55777˚ 142 nm 142 nm 166° / 167° -

Altitude Profile

Advertisement - Login to hide

PAUN

Details ICAO PAUN (UNK)
Name Unalakleet
Region USA (Alaska)
Timezone America/Anchorage (UTC-8.0)
Stats Elevation 68 ft / 21 m (AMSL)
Location 63.886590° -160.796931°
Runways 2
Magnetic Variation 12.026° E

METAR

PAUN 212256Z AUTO 29013KT 10SM BKN065 OVC080 08/04 A2950 RMK AO2 RAB25E40 SLP993 P0000 T00830044

Decode

TAF

PAUN 211730Z 2118/2218 22005KT P6SM FEW050 BKN090 FM212000 32013KT P6SM -SHRA SCT025 BKN040 OVC090 FM220800 30008KT P6SM VCSH FEW025 SCT040 BKN090 FM221400 24004KT P6SM FEW040 SCT090

Decode

Departure Runways

ID Width Length Bearing (true) Bearing (mag) Surface Threshold Offset Overrun Length
15 151 ft / 46 m 5,990 ft / 1,826 m 164.15° 152.12° Asphalt 0 ft / 0 m 499 ft / 152 m
26 79 ft / 24 m 1,993 ft / 608 m 278.43° 266.40° Asphalt 0 ft / 0 m 0 ft / 0 m
33 151 ft / 46 m 5,990 ft / 1,826 m 344.16° 332.13° Asphalt 0 ft / 0 m 0 ft / 0 m
8 79 ft / 24 m 1,993 ft / 608 m 98.42° 86.39° Asphalt 0 ft / 0 m 0 ft / 0 m

PANI

Details ICAO PANI (ANI)
Name ANIAK
Region USA (Alaska)
Timezone America/Anchorage (UTC-8.0)
Stats Elevation 88 ft / 27 m (AMSL)
Location 61.581597° -159.543045°
Runways 1
Magnetic Variation 12.411° E

METAR

PANI 212256Z AUTO 31008KT 10SM SCT050 16/04 A2940 RMK AO2 SLP923 T01610039

Decode

TAF

Not found

Destination Runways

ID Width Length Bearing (true) Bearing (mag) Surface Threshold Offset Overrun Length
10 151 ft / 46 m 5,982 ft / 1,823 m 121.22° 108.81° Asphalt 0 ft / 0 m 0 ft / 0 m
28 151 ft / 46 m 5,982 ft / 1,823 m 301.24° 288.83° Asphalt 0 ft / 0 m 0 ft / 0 m

Approach Navaids

Runway Type Ident Frequency Range Bearing (true) Bearing (mag) Slope Elevation
10 Localiser IANI 109.70 MHz 18 nm / 33 km 121.25° 108.84° - 88 ft / 27 m (AMSL)
10 Glidescope IANI 109.70 MHz 10 nm / 19 km 121.23° 108.82° 3.00° 88 ft / 27 m (AMSL)
10 DME IANI 109.70 MHz 18 nm / 33 km - - - 88 ft / 27 m (AMSL)